createdAt,value
2017-10-08T00:00:01.351Z,934.16
2017-10-08T00:00:29.483Z,934.22
2017-10-08T00:00:57.472Z,934.19
2017-10-08T00:01:25.548Z,934.2
2017-10-08T00:01:53.559Z,934.16
2017-10-08T00:02:21.442Z,934.18
2017-10-08T00:02:49.326Z,934.18
2017-10-08T00:03:17.447Z,934.17
2017-10-08T00:03:45.345Z,934.15
2017-10-08T00:04:13.457Z,934.13
2017-10-08T00:04:41.465Z,934.16
2017-10-08T00:05:09.710Z,934.13
2017-10-08T00:05:37.717Z,934.1
2017-10-08T00:06:05.502Z,934.14
2017-10-08T00:06:33.610Z,934.11
2017-10-08T00:07:01.622Z,934.08
2017-10-08T00:07:29.659Z,934.09
2017-10-08T00:07:57.655Z,934.08
2017-10-08T00:08:25.650Z,934.06
2017-10-08T00:08:53.514Z,934.09
2017-10-08T00:09:21.402Z,934.07
2017-10-08T00:09:49.494Z,934.13
2017-10-08T00:10:17.432Z,934.06
2017-10-08T00:10:45.446Z,934.04
2017-10-08T00:11:13.304Z,934.03
2017-10-08T00:11:41.319Z,934.02
2017-10-08T00:12:09.090Z,934.06
2017-10-08T00:12:37.197Z,934.03
2017-10-08T00:13:05.243Z,934.04
2017-10-08T00:13:33.258Z,934.03
2017-10-08T00:14:01.243Z,933.99
2017-10-08T00:14:29.252Z,934.02
2017-10-08T00:14:57.223Z,934
2017-10-08T00:15:25.410Z,933.95
2017-10-08T00:15:53.196Z,933.97
2017-10-08T00:16:21.079Z,933.99
2017-10-08T00:16:48.959Z,934
2017-10-08T00:17:16.823Z,934
2017-10-08T00:17:44.609Z,934
2017-10-08T00:18:12.604Z,934.01
2017-10-08T00:18:40.713Z,933.98
2017-10-08T00:19:08.630Z,933.99
2017-10-08T00:19:36.627Z,934.05
2017-10-08T00:20:04.634Z,934.05
2017-10-08T00:20:33.028Z,934.06
2017-10-08T00:21:00.931Z,934.05
2017-10-08T00:21:28.745Z,934.05
2017-10-08T00:21:56.735Z,934.04
2017-10-08T00:22:24.539Z,934.05
2017-10-08T00:22:52.521Z,934.12
2017-10-08T00:23:20.404Z,934.05
2017-10-08T00:23:48.512Z,934.05
2017-10-08T00:24:16.528Z,934.04
2017-10-08T00:24:44.521Z,934.06
2017-10-08T00:25:12.109Z,934.05
2017-10-08T00:25:40.344Z,934.08
2017-10-08T00:26:08.153Z,934.09
2017-10-08T00:26:36.222Z,934.05
2017-10-08T00:27:04.207Z,934.1
2017-10-08T00:27:31.998Z,934.08
2017-10-08T00:27:59.994Z,934.11
2017-10-08T00:28:27.907Z,934.07
2017-10-08T00:28:55.789Z,934.09
2017-10-08T00:29:23.588Z,934.06
2017-10-08T00:29:51.575Z,934.09
2017-10-08T00:30:19.813Z,934.07
2017-10-08T00:30:47.707Z,934.16
2017-10-08T00:31:15.505Z,934.11
2017-10-08T00:31:43.506Z,934.04
2017-10-08T00:32:11.489Z,934.06
2017-10-08T00:32:39.380Z,934.06
2017-10-08T00:33:07.390Z,934.06
2017-10-08T00:33:35.411Z,934.07
2017-10-08T00:34:03.402Z,934.13
2017-10-08T00:34:31.525Z,934.11
2017-10-08T00:34:59.605Z,934.12
2017-10-08T00:35:27.853Z,934.13
2017-10-08T00:35:55.954Z,934.06
2017-10-08T00:36:23.866Z,934.2
2017-10-08T00:36:51.729Z,934.12
2017-10-08T00:37:19.710Z,934.14
2017-10-08T00:37:47.826Z,934.18
2017-10-08T00:38:15.933Z,934.18
2017-10-08T00:38:44.039Z,934.17
2017-10-08T00:39:12.145Z,934.16
2017-10-08T00:39:40.135Z,934.1
2017-10-08T00:40:08.167Z,934.14
2017-10-08T00:40:36.251Z,934.17
2017-10-08T00:41:04.150Z,934.21
2017-10-08T00:41:32.132Z,934.18
2017-10-08T00:42:00.216Z,934.13
2017-10-08T00:42:28.343Z,934.12
2017-10-08T00:42:56.367Z,934.17
2017-10-08T00:43:24.268Z,934.14
2017-10-08T00:43:52.260Z,934.15
2017-10-08T00:44:20.363Z,934.14
2017-10-08T00:44:48.444Z,934.11
2017-10-08T00:45:16.606Z,934.12
2017-10-08T00:45:44.649Z,934.13
2017-10-08T00:46:12.656Z,934.09
2017-10-08T00:46:40.556Z,934.12
2017-10-08T00:47:08.646Z,934.13
2017-10-08T00:47:36.728Z,934.15
2017-10-08T00:48:04.648Z,934.08
2017-10-08T00:48:32.706Z,934.07
2017-10-08T00:49:00.815Z,934.03
2017-10-08T00:49:28.785Z,934.07
2017-10-08T00:49:56.849Z,934.05
2017-10-08T00:50:24.972Z,934.04
2017-10-08T00:50:53.238Z,933.98
2017-10-08T00:51:21.271Z,934.04
2017-10-08T00:51:49.165Z,934.05
2017-10-08T00:52:17.263Z,933.99
2017-10-08T00:52:45.375Z,934.01
2017-10-08T00:53:13.485Z,934.07
2017-10-08T00:53:41.607Z,934.01
2017-10-08T00:54:09.689Z,934.01
2017-10-08T00:54:37.587Z,933.99
2017-10-08T00:55:05.491Z,934.02
2017-10-08T00:55:33.689Z,934.04
2017-10-08T00:56:01.808Z,934.06
2017-10-08T00:56:29.803Z,934.11
2017-10-08T00:56:57.801Z,934.12
2017-10-08T00:57:25.806Z,934.09
2017-10-08T00:57:53.908Z,934.08
2017-10-08T00:58:21.992Z,934.1
2017-10-08T00:58:50.009Z,934.16
2017-10-08T00:59:17.997Z,934.15
2017-10-08T00:59:45.914Z,934.16
2017-10-08T01:00:13.932Z,934.17
2017-10-08T01:00:42.029Z,934.12
2017-10-08T01:01:10.120Z,934.16
2017-10-08T01:01:38.106Z,934.17
2017-10-08T01:02:06.110Z,934.1
2017-10-08T01:02:34.109Z,934.14
2017-10-08T01:03:02.100Z,934.15
2017-10-08T01:03:30.199Z,934.16
2017-10-08T01:03:58.219Z,934.14
2017-10-08T01:04:26.214Z,934.16
2017-10-08T01:04:54.227Z,934.2
2017-10-08T01:05:22.131Z,934.22
2017-10-08T01:05:50.358Z,934.17
2017-10-08T01:06:18.439Z,934.24
2017-10-08T01:06:46.357Z,934.25
2017-10-08T01:07:14.237Z,934.24
2017-10-08T01:07:42.252Z,934.27
2017-10-08T01:08:10.339Z,934.19
2017-10-08T01:08:38.324Z,934.21
2017-10-08T01:09:06.234Z,934.19
2017-10-08T01:09:34.317Z,934.2
2017-10-08T01:10:02.336Z,934.18
2017-10-08T01:10:30.208Z,934.18
2017-10-08T01:10:58.515Z,934.18
2017-10-08T01:11:26.492Z,934.22
2017-10-08T01:11:54.500Z,934.15
2017-10-08T01:12:22.305Z,934.18
2017-10-08T01:12:50.200Z,934.14
2017-10-08T01:13:18.048Z,934.15
2017-10-08T01:13:46.038Z,934.14
2017-10-08T01:14:13.924Z,934.13
2017-10-08T01:14:42.035Z,934.13
2017-10-08T01:15:09.917Z,934.1
2017-10-08T01:15:38.002Z,934.14
2017-10-08T01:16:06.245Z,934.11
2017-10-08T01:16:34.278Z,934.1
2017-10-08T01:17:02.274Z,934.12
2017-10-08T01:17:30.267Z,934.12
2017-10-08T01:17:58.262Z,934.1
2017-10-08T01:18:26.371Z,934.14
2017-10-08T01:18:54.260Z,934.14
2017-10-08T01:19:22.252Z,934.11
2017-10-08T01:19:50.266Z,934.09
2017-10-08T01:20:18.075Z,934.11
2017-10-08T01:20:46.334Z,934.1
2017-10-08T01:21:14.372Z,934.09
2017-10-08T01:21:42.260Z,934.1
2017-10-08T01:22:10.033Z,934.08
2017-10-08T01:22:38.038Z,934.07
2017-10-08T01:23:06.170Z,934.07
2017-10-08T01:23:34.305Z,934.05
2017-10-08T01:24:02.075Z,934.02
2017-10-08T01:24:30.100Z,934.05
2017-10-08T01:24:58.017Z,934.01
2017-10-08T01:25:26.098Z,934.02
2017-10-08T01:25:53.994Z,934.05
2017-10-08T01:26:21.875Z,933.97
2017-10-08T01:26:49.943Z,934.01
2017-10-08T01:27:18.022Z,933.99
2017-10-08T01:27:46.125Z,934.06
2017-10-08T01:28:14.223Z,934.01
2017-10-08T01:28:42.009Z,933.99
2017-10-08T01:29:09.815Z,934.02
2017-10-08T01:29:37.932Z,934.04
2017-10-08T01:30:05.915Z,933.98
2017-10-08T01:30:34.033Z,933.99
2017-10-08T01:31:02.301Z,934.01
2017-10-08T01:31:30.277Z,934.01
2017-10-08T01:31:58.273Z,934.02
2017-10-08T01:32:26.241Z,934.02
2017-10-08T01:32:54.274Z,934
2017-10-08T01:33:22.379Z,933.96
2017-10-08T01:33:50.292Z,933.95
2017-10-08T01:34:18.390Z,933.9
2017-10-08T01:34:46.421Z,933.94
2017-10-08T01:35:14.315Z,933.93
2017-10-08T01:35:42.404Z,933.85
2017-10-08T01:36:10.591Z,933.88
2017-10-08T01:36:38.629Z,933.86
2017-10-08T01:37:06.708Z,933.88
2017-10-08T01:37:34.729Z,933.88
2017-10-08T01:38:02.819Z,933.84
2017-10-08T01:38:30.824Z,933.78
2017-10-08T01:38:58.746Z,933.77
2017-10-08T01:39:26.640Z,933.75
2017-10-08T01:40:26.461Z,933.79
2017-10-08T01:40:54.481Z,933.71
2017-10-08T01:41:22.618Z,933.74
2017-10-08T01:41:50.494Z,933.71
2017-10-08T01:42:18.583Z,933.68
2017-10-08T01:42:46.687Z,933.71
2017-10-08T01:43:14.783Z,933.68
2017-10-08T01:43:42.889Z,933.68
2017-10-08T01:44:10.865Z,933.66
2017-10-08T01:44:38.973Z,933.66
2017-10-08T01:45:06.884Z,933.66
2017-10-08T01:45:34.963Z,933.63
2017-10-08T01:46:03.229Z,933.63
2017-10-08T01:46:31.329Z,933.62
2017-10-08T01:46:59.323Z,933.64
2017-10-08T01:47:27.356Z,933.62
2017-10-08T01:47:55.376Z,933.6
2017-10-08T01:48:23.358Z,933.59
2017-10-08T01:48:51.467Z,933.58
2017-10-08T01:49:19.375Z,933.58
2017-10-08T01:49:47.370Z,933.62
2017-10-08T01:50:15.294Z,933.58
2017-10-08T01:50:43.272Z,933.62
2017-10-08T01:51:11.589Z,933.61
2017-10-08T01:51:39.482Z,933.58
2017-10-08T01:52:07.581Z,933.57
2017-10-08T01:52:35.450Z,933.6
2017-10-08T01:53:03.255Z,933.59
2017-10-08T01:53:31.287Z,933.61
2017-10-08T01:53:59.181Z,933.61
2017-10-08T01:54:27.186Z,933.58
2017-10-08T01:54:55.179Z,933.58
2017-10-08T01:55:23.198Z,933.59
2017-10-08T01:55:51.282Z,933.61
2017-10-08T01:56:19.607Z,933.63
2017-10-08T01:56:47.728Z,933.64
2017-10-08T01:57:15.863Z,933.63
2017-10-08T01:57:43.737Z,933.67
2017-10-08T01:58:11.749Z,933.64
2017-10-08T01:58:39.861Z,933.66
2017-10-08T01:59:07.769Z,933.64
2017-10-08T01:59:35.891Z,933.67
2017-10-08T02:00:03.982Z,933.65
2017-10-08T02:00:31.994Z,933.62
2017-10-08T02:01:00.075Z,933.62
2017-10-08T02:01:28.296Z,933.56
2017-10-08T02:01:56.190Z,933.6
2017-10-08T02:02:24.209Z,933.56
2017-10-08T02:02:52.233Z,933.59
2017-10-08T02:03:20.234Z,933.55
2017-10-08T02:03:48.234Z,933.51
2017-10-08T02:04:16.345Z,933.5
2017-10-08T02:04:44.451Z,933.49
2017-10-08T02:05:12.540Z,933.46
2017-10-08T02:05:40.518Z,933.46
2017-10-08T02:06:08.489Z,933.46
2017-10-08T02:06:36.725Z,933.52
2017-10-08T02:07:04.753Z,933.46
2017-10-08T02:07:32.660Z,933.5
2017-10-08T02:08:00.761Z,933.47
2017-10-08T02:08:28.744Z,933.44
2017-10-08T02:08:56.837Z,933.47
2017-10-08T02:09:24.965Z,933.48
2017-10-08T02:09:52.898Z,933.48
2017-10-08T02:10:20.902Z,933.43
2017-10-08T02:10:48.917Z,933.43
2017-10-08T02:11:17.006Z,933.4
2017-10-08T02:11:44.792Z,933.41
2017-10-08T02:12:12.691Z,933.38
2017-10-08T02:12:40.704Z,933.36
2017-10-08T02:13:08.696Z,933.33
2017-10-08T02:13:36.834Z,933.31
2017-10-08T02:14:04.804Z,933.26
2017-10-08T02:14:32.925Z,933.27
2017-10-08T02:15:00.910Z,933.2
2017-10-08T02:15:28.791Z,933.21
2017-10-08T02:15:56.869Z,933.16
2017-10-08T02:16:25.180Z,933.15
2017-10-08T02:16:53.165Z,933.14
2017-10-08T02:17:21.159Z,933.12
2017-10-08T02:17:49.259Z,933.09
2017-10-08T02:18:17.288Z,933.11
2017-10-08T02:18:45.384Z,933.06
2017-10-08T02:19:13.487Z,933.03
2017-10-08T02:19:41.373Z,933.02
2017-10-08T02:20:09.248Z,933.02
2017-10-08T02:20:37.227Z,933.01
2017-10-08T02:21:05.217Z,932.99
2017-10-08T02:21:33.381Z,932.98
2017-10-08T02:22:01.381Z,932.98
2017-10-08T02:22:29.362Z,932.95
2017-10-08T02:22:57.430Z,932.94
2017-10-08T02:23:25.415Z,932.93
2017-10-08T02:23:53.315Z,932.93
2017-10-08T02:24:21.337Z,932.92
2017-10-08T02:24:49.322Z,932.88
2017-10-08T02:25:17.332Z,932.88
2017-10-08T02:25:45.324Z,932.88
2017-10-08T02:26:13.420Z,932.83
2017-10-08T02:26:41.679Z,932.84
2017-10-08T02:27:09.667Z,932.81
2017-10-08T02:27:37.568Z,932.83
2017-10-08T02:28:05.662Z,932.78
2017-10-08T02:28:33.753Z,932.73
2017-10-08T02:29:01.889Z,932.75
2017-10-08T02:29:29.993Z,932.77
2017-10-08T02:29:57.995Z,932.76
2017-10-08T02:30:25.974Z,932.78
2017-10-08T02:30:53.978Z,932.78
2017-10-08T02:31:22.072Z,932.81
2017-10-08T02:31:50.166Z,932.8
2017-10-08T02:32:18.190Z,932.81
2017-10-08T02:32:46.278Z,932.81
2017-10-08T02:33:14.380Z,932.85
2017-10-08T02:33:42.479Z,932.81
2017-10-08T02:34:10.459Z,932.8
2017-10-08T02:34:38.535Z,932.76
2017-10-08T02:35:06.678Z,932.78
2017-10-08T02:35:34.759Z,932.79
2017-10-08T02:36:02.771Z,932.72
2017-10-08T02:36:30.904Z,932.72
2017-10-08T02:36:59.013Z,932.69
2017-10-08T02:37:26.991Z,932.67
2017-10-08T02:37:55.013Z,932.63
2017-10-08T02:38:23.187Z,932.66
2017-10-08T02:38:51.202Z,932.63
2017-10-08T02:39:19.334Z,932.62
2017-10-08T02:39:47.308Z,932.63
2017-10-08T02:40:15.301Z,932.57
2017-10-08T02:40:43.392Z,932.54
2017-10-08T02:41:11.499Z,932.56
2017-10-08T02:41:39.663Z,932.53
2017-10-08T02:42:07.587Z,932.49
2017-10-08T02:42:35.471Z,932.47
2017-10-08T02:43:03.556Z,932.45
2017-10-08T02:43:31.546Z,932.41
2017-10-08T02:43:59.566Z,932.41
2017-10-08T02:44:27.664Z,932.37
2017-10-08T02:44:55.554Z,932.41
2017-10-08T02:45:23.568Z,932.41
2017-10-08T02:45:51.578Z,932.36
2017-10-08T02:46:19.571Z,932.37
2017-10-08T02:46:47.773Z,932.39
2017-10-08T02:47:15.898Z,932.41
2017-10-08T02:47:43.896Z,932.41
2017-10-08T02:48:12.007Z,932.39
2017-10-08T02:48:40.023Z,932.43
2017-10-08T02:49:08.035Z,932.4
2017-10-08T02:49:35.942Z,932.41
2017-10-08T02:50:03.841Z,932.41
2017-10-08T02:50:31.837Z,932.43
2017-10-08T02:50:59.936Z,932.45
2017-10-08T02:51:28.051Z,932.45
2017-10-08T02:51:56.141Z,932.45
2017-10-08T02:52:24.121Z,932.44
2017-10-08T02:52:51.928Z,932.43
2017-10-08T02:53:20.040Z,932.46
2017-10-08T02:53:48.132Z,932.47
2017-10-08T02:54:16.219Z,932.46
2017-10-08T02:54:44.205Z,932.47
2017-10-08T02:55:12.325Z,932.48
2017-10-08T02:55:40.201Z,932.46
2017-10-08T02:56:08.310Z,932.5
2017-10-08T02:56:36.432Z,932.51
2017-10-08T02:57:04.714Z,932.49
2017-10-08T02:57:32.827Z,932.55
2017-10-08T02:58:00.857Z,932.55
2017-10-08T02:58:28.929Z,932.55
2017-10-08T02:58:56.942Z,932.58
2017-10-08T02:59:25.040Z,932.59
2017-10-08T02:59:52.927Z,932.59
2017-10-08T03:00:20.940Z,932.61
2017-10-08T03:00:48.949Z,932.61
2017-10-08T03:01:17.077Z,932.64
2017-10-08T03:01:45.232Z,932.62
2017-10-08T03:02:13.308Z,932.64
2017-10-08T03:02:41.319Z,932.65
2017-10-08T03:03:09.330Z,932.63
2017-10-08T03:03:37.262Z,932.66
2017-10-08T03:04:05.324Z,932.64
2017-10-08T03:04:33.117Z,932.62
2017-10-08T03:05:01.125Z,932.63
2017-10-08T03:05:29.224Z,932.61
2017-10-08T03:05:57.324Z,932.62
2017-10-08T03:06:25.364Z,932.61
2017-10-08T03:06:53.560Z,932.62
2017-10-08T03:07:21.557Z,932.63
2017-10-08T03:07:49.615Z,932.63
2017-10-08T03:08:17.656Z,932.62
2017-10-08T03:08:45.705Z,932.63
2017-10-08T03:09:13.526Z,932.63
2017-10-08T03:09:41.515Z,932.69
2017-10-08T03:10:09.617Z,932.68
2017-10-08T03:10:37.698Z,932.7
2017-10-08T03:11:05.667Z,932.69
2017-10-08T03:11:33.668Z,932.72
2017-10-08T03:12:01.713Z,932.7
2017-10-08T03:12:29.604Z,932.73
2017-10-08T03:12:57.375Z,932.73
2017-10-08T03:13:25.470Z,932.76
2017-10-08T03:13:53.494Z,932.74
2017-10-08T03:14:21.641Z,932.77
2017-10-08T03:14:49.729Z,932.78
2017-10-08T03:15:17.845Z,932.77
2017-10-08T03:15:45.947Z,932.75
2017-10-08T03:16:13.862Z,932.75
2017-10-08T03:16:41.755Z,932.79
2017-10-08T03:17:09.817Z,932.78
2017-10-08T03:17:37.910Z,932.75
2017-10-08T03:18:05.944Z,932.79
2017-10-08T03:18:33.932Z,932.78
2017-10-08T03:19:02.021Z,932.76
2017-10-08T03:19:30.107Z,932.76
2017-10-08T03:19:58.198Z,932.72
2017-10-08T03:20:26.082Z,932.77
2017-10-08T03:20:53.972Z,932.79
2017-10-08T03:21:22.105Z,932.78
2017-10-08T03:21:50.080Z,932.81
2017-10-08T03:22:18.316Z,932.85
2017-10-08T03:22:46.295Z,932.87
2017-10-08T03:23:14.301Z,932.84
2017-10-08T03:23:42.394Z,932.86
2017-10-08T03:24:10.385Z,932.88
2017-10-08T03:24:38.373Z,932.91
2017-10-08T03:25:06.446Z,932.91
2017-10-08T03:25:34.432Z,932.93
2017-10-08T03:26:02.315Z,932.91
2017-10-08T03:26:30.403Z,932.95
2017-10-08T03:26:58.596Z,932.91
2017-10-08T03:27:26.682Z,932.92
2017-10-08T03:27:54.784Z,932.9
2017-10-08T03:28:22.561Z,932.89
2017-10-08T03:28:50.668Z,932.9
2017-10-08T03:29:18.690Z,932.87
2017-10-08T03:29:46.686Z,932.88
2017-10-08T03:30:14.804Z,932.86
2017-10-08T03:30:42.919Z,932.84
2017-10-08T03:31:10.949Z,932.86
2017-10-08T03:31:39.041Z,932.84
2017-10-08T03:32:07.190Z,932.84
2017-10-08T03:32:35.293Z,932.84
2017-10-08T03:33:03.400Z,932.83
2017-10-08T03:33:31.310Z,932.82
2017-10-08T03:33:59.425Z,932.83
2017-10-08T03:34:27.312Z,932.81
2017-10-08T03:34:55.349Z,932.8
2017-10-08T03:35:23.430Z,932.78
2017-10-08T03:35:51.429Z,932.78
2017-10-08T03:36:19.520Z,932.75
2017-10-08T03:36:47.615Z,932.78
2017-10-08T03:37:15.489Z,932.76
2017-10-08T03:37:43.587Z,932.76
2017-10-08T03:38:11.727Z,932.76
2017-10-08T03:38:39.760Z,932.74
2017-10-08T03:39:07.895Z,932.73
2017-10-08T03:39:35.768Z,932.7
2017-10-08T03:40:03.861Z,932.71
2017-10-08T03:40:31.966Z,932.73
2017-10-08T03:40:59.998Z,932.72
2017-10-08T03:41:27.903Z,932.71
2017-10-08T03:41:56.011Z,932.73
2017-10-08T03:42:24.158Z,932.73
2017-10-08T03:42:52.251Z,932.71
2017-10-08T03:43:20.336Z,932.69
2017-10-08T03:43:48.337Z,932.69
2017-10-08T03:44:16.406Z,932.73
2017-10-08T03:44:44.491Z,932.69
2017-10-08T03:45:12.585Z,932.67
2017-10-08T03:45:40.467Z,932.7
2017-10-08T03:46:08.369Z,932.69
2017-10-08T03:46:36.261Z,932.69
2017-10-08T03:47:04.166Z,932.68
2017-10-08T03:47:32.198Z,932.66
2017-10-08T03:48:00.281Z,932.68
2017-10-08T03:48:27.985Z,932.66
2017-10-08T03:48:56.075Z,932.65
2017-10-08T03:49:24.097Z,932.67
2017-10-08T03:49:52.096Z,932.69
2017-10-08T03:50:20.192Z,932.67
2017-10-08T03:50:48.170Z,932.73
2017-10-08T03:51:16.254Z,932.66
2017-10-08T03:51:44.131Z,932.69
2017-10-08T03:52:12.390Z,932.66
2017-10-08T03:52:40.492Z,932.67
2017-10-08T03:53:08.605Z,932.7
2017-10-08T03:53:36.489Z,932.68
2017-10-08T03:54:04.599Z,932.67
2017-10-08T03:54:32.343Z,932.65
2017-10-08T03:55:00.426Z,932.69
2017-10-08T03:55:28.348Z,932.69
2017-10-08T03:55:56.449Z,932.68
2017-10-08T03:56:24.426Z,932.66
2017-10-08T03:56:52.544Z,932.69
2017-10-08T03:57:20.699Z,932.71
2017-10-08T03:57:48.670Z,932.65
2017-10-08T03:58:16.723Z,932.65
2017-10-08T03:58:44.773Z,932.66
2017-10-08T03:59:12.781Z,932.63
2017-10-08T03:59:40.772Z,932.62
2017-10-08T04:00:08.769Z,932.59
2017-10-08T04:00:36.859Z,932.56
2017-10-08T04:01:04.761Z,932.52
2017-10-08T04:01:32.854Z,932.48
2017-10-08T04:02:00.842Z,932.43
2017-10-08T04:02:28.936Z,932.4
2017-10-08T04:02:56.914Z,932.32
2017-10-08T04:03:25.002Z,932.33
2017-10-08T04:03:53.009Z,932.28
2017-10-08T04:04:20.812Z,932.28
2017-10-08T04:04:48.930Z,932.28
2017-10-08T04:05:17.011Z,932.25
2017-10-08T04:05:45.034Z,932.21
2017-10-08T04:06:13.016Z,932.23
2017-10-08T04:06:41.028Z,932.22
2017-10-08T04:07:09.131Z,932.24
2017-10-08T04:07:37.112Z,932.25
2017-10-08T04:08:05.223Z,932.27
2017-10-08T04:08:33.316Z,932.26
2017-10-08T04:09:01.235Z,932.3
2017-10-08T04:09:29.158Z,932.3
2017-10-08T04:09:57.254Z,932.31
2017-10-08T04:10:25.334Z,932.34
2017-10-08T04:10:53.456Z,932.36
2017-10-08T04:11:21.463Z,932.33
2017-10-08T04:11:49.571Z,932.32
2017-10-08T04:12:17.704Z,932.35
2017-10-08T04:12:45.947Z,932.36
2017-10-08T04:13:14.070Z,932.34
2017-10-08T04:13:42.190Z,932.32
2017-10-08T04:14:10.337Z,932.32
2017-10-08T04:14:38.442Z,932.31
2017-10-08T04:15:06.553Z,932.33
2017-10-08T04:15:34.469Z,932.34
2017-10-08T04:16:02.487Z,932.35
2017-10-08T04:16:30.611Z,932.36
2017-10-08T04:16:58.608Z,932.34
2017-10-08T04:17:26.850Z,932.36
2017-10-08T04:17:54.950Z,932.33
2017-10-08T04:18:22.964Z,932.34
2017-10-08T04:18:50.976Z,932.32
2017-10-08T04:19:18.968Z,932.3
2017-10-08T04:19:46.958Z,932.26
2017-10-08T04:20:14.950Z,932.24
2017-10-08T04:20:42.841Z,932.23
2017-10-08T04:21:10.865Z,932.17
2017-10-08T04:21:38.881Z,932.12
2017-10-08T04:22:06.948Z,932.13
2017-10-08T04:22:34.947Z,932.09
2017-10-08T04:23:03.059Z,932.11
2017-10-08T04:23:31.038Z,932.05
2017-10-08T04:23:59.039Z,932.09
2017-10-08T04:24:27.026Z,932.07
2017-10-08T04:24:55.152Z,932.09
2017-10-08T04:25:23.242Z,932.07
2017-10-08T04:25:51.131Z,932.07
2017-10-08T04:26:19.218Z,932.04
2017-10-08T04:26:47.322Z,932.04
2017-10-08T04:27:15.432Z,932
2017-10-08T04:27:43.666Z,931.95
2017-10-08T04:28:11.811Z,931.92
2017-10-08T04:28:39.697Z,931.91
2017-10-08T04:29:07.728Z,931.84
2017-10-08T04:29:35.740Z,931.8
2017-10-08T04:30:03.750Z,931.81
2017-10-08T04:30:31.750Z,931.72
2017-10-08T04:30:59.769Z,931.68
2017-10-08T04:31:27.798Z,931.63
2017-10-08T04:31:55.913Z,931.61
2017-10-08T04:32:24.031Z,931.55
2017-10-08T04:32:52.298Z,931.46
2017-10-08T04:33:20.408Z,931.41
2017-10-08T04:33:48.540Z,931.4
2017-10-08T04:34:16.619Z,931.34
2017-10-08T04:34:44.721Z,931.3
2017-10-08T04:35:12.809Z,931.25
2017-10-08T04:35:40.788Z,931.2
2017-10-08T04:36:08.894Z,931.16
2017-10-08T04:36:36.869Z,931.18
2017-10-08T04:37:04.880Z,931.21
2017-10-08T04:37:32.980Z,931.17
2017-10-08T04:38:01.160Z,931.16
2017-10-08T04:38:29.233Z,931.15
2017-10-08T04:38:57.122Z,931.17
2017-10-08T04:39:25.115Z,931.16
2017-10-08T04:39:53.100Z,931.18
2017-10-08T04:40:21.000Z,931.16
2017-10-08T04:40:48.990Z,931.18
2017-10-08T04:41:17.011Z,931.13
2017-10-08T04:41:45.119Z,931.17
2017-10-08T04:42:13.199Z,931.1
2017-10-08T04:42:41.323Z,931.12
2017-10-08T04:43:09.400Z,931.1
2017-10-08T04:43:37.493Z,931.08
2017-10-08T04:44:05.491Z,931.11
2017-10-08T04:44:33.520Z,931.06
2017-10-08T04:45:01.525Z,931.07
2017-10-08T04:45:29.522Z,931.04
2017-10-08T04:45:57.600Z,931.09
2017-10-08T04:46:25.697Z,931.04
2017-10-08T04:46:53.698Z,931.1
2017-10-08T04:47:21.709Z,931.05
2017-10-08T04:47:49.798Z,931.08
2017-10-08T04:48:17.777Z,931.04
2017-10-08T04:48:45.885Z,931.07
2017-10-08T04:49:13.869Z,931.14
2017-10-08T04:49:41.956Z,931.18
2017-10-08T04:50:10.045Z,931.22
2017-10-08T04:50:38.030Z,931.25
2017-10-08T04:51:05.923Z,931.29
2017-10-08T04:51:34.008Z,931.33
2017-10-08T04:52:01.884Z,931.39
2017-10-08T04:52:29.989Z,931.45
2017-10-08T04:52:58.154Z,931.47
2017-10-08T04:53:26.162Z,931.54
2017-10-08T04:53:54.125Z,931.61
2017-10-08T04:54:22.017Z,931.65
2017-10-08T04:54:50.139Z,931.74
2017-10-08T04:55:18.269Z,931.77
2017-10-08T04:55:46.183Z,931.83
2017-10-08T04:56:14.285Z,931.86
2017-10-08T04:56:42.277Z,931.89
2017-10-08T04:57:10.298Z,931.93
2017-10-08T04:57:38.194Z,931.91
2017-10-08T04:58:06.351Z,931.95
2017-10-08T04:58:34.489Z,931.96
2017-10-08T04:59:02.604Z,931.97
2017-10-08T04:59:30.593Z,932
2017-10-08T04:59:58.567Z,932.03
2017-10-08T05:00:26.692Z,932.01
2017-10-08T05:00:54.792Z,932.01
2017-10-08T05:01:22.802Z,932.02
2017-10-08T05:01:50.799Z,932.05
2017-10-08T05:02:18.718Z,932.07
2017-10-08T05:02:46.697Z,932.02
2017-10-08T05:03:14.846Z,932.03
2017-10-08T05:03:42.857Z,932.01
2017-10-08T05:04:10.648Z,931.98
2017-10-08T05:04:38.638Z,931.93
2017-10-08T05:05:06.624Z,931.95
2017-10-08T05:05:34.727Z,931.84
2017-10-08T05:06:02.820Z,931.84
2017-10-08T05:06:30.816Z,931.8
2017-10-08T05:06:58.831Z,931.79
2017-10-08T05:07:26.934Z,931.76
2017-10-08T05:07:55.083Z,931.75
2017-10-08T05:08:23.186Z,931.71
2017-10-08T05:08:51.085Z,931.68
2017-10-08T05:09:18.974Z,931.68
2017-10-08T05:09:46.915Z,931.67
2017-10-08T05:10:14.901Z,931.67
2017-10-08T05:10:43.025Z,931.63
2017-10-08T05:11:11.141Z,931.65
2017-10-08T05:11:39.260Z,931.6
2017-10-08T05:12:07.260Z,931.59
2017-10-08T05:12:35.358Z,931.55
2017-10-08T05:13:03.493Z,931.52
2017-10-08T05:13:31.594Z,931.5
2017-10-08T05:13:59.464Z,931.45
2017-10-08T05:14:27.565Z,931.42
2017-10-08T05:14:55.673Z,931.36
2017-10-08T05:15:23.760Z,931.37
2017-10-08T05:15:51.855Z,931.35
2017-10-08T05:16:19.860Z,931.32
2017-10-08T05:16:47.845Z,931.21
2017-10-08T05:17:15.924Z,931.23
2017-10-08T05:17:44.024Z,931.21
2017-10-08T05:18:12.271Z,931.16
2017-10-08T05:18:40.253Z,931.17
2017-10-08T05:19:08.366Z,931.13
2017-10-08T05:19:36.488Z,931.12
2017-10-08T05:20:04.513Z,931.06
2017-10-08T05:20:32.647Z,931.07
2017-10-08T05:21:00.750Z,931.04
2017-10-08T05:21:28.824Z,931
2017-10-08T05:21:56.828Z,930.93
2017-10-08T05:22:24.937Z,930.91
2017-10-08T05:22:52.961Z,930.9
2017-10-08T05:23:21.146Z,930.78
2017-10-08T05:23:49.259Z,930.8
2017-10-08T05:24:17.374Z,930.77
2017-10-08T05:24:45.371Z,930.69
2017-10-08T05:25:13.243Z,930.7
2017-10-08T05:25:41.238Z,930.65
2017-10-08T05:26:09.317Z,930.64
2017-10-08T05:26:37.297Z,930.57
2017-10-08T05:27:05.308Z,930.56
2017-10-08T05:27:33.077Z,930.54
2017-10-08T05:28:00.955Z,930.47
2017-10-08T05:28:29.099Z,930.48
2017-10-08T05:28:57.202Z,930.46
2017-10-08T05:29:25.292Z,930.44
2017-10-08T05:29:53.422Z,930.43
2017-10-08T05:30:21.398Z,930.44
2017-10-08T05:30:49.487Z,930.47
2017-10-08T05:31:17.570Z,930.43
2017-10-08T05:31:45.563Z,930.45
2017-10-08T05:32:13.659Z,930.42
2017-10-08T05:32:41.748Z,930.48
2017-10-08T05:33:09.970Z,930.43
2017-10-08T05:33:38.059Z,930.49
2017-10-08T05:34:06.051Z,930.45
2017-10-08T05:34:34.017Z,930.39
2017-10-08T05:35:02.109Z,930.38
2017-10-08T05:35:30.260Z,930.43
2017-10-08T05:35:58.367Z,930.4
2017-10-08T05:36:26.285Z,930.36
2017-10-08T05:36:54.263Z,930.37
2017-10-08T05:37:22.230Z,930.36
2017-10-08T05:37:50.332Z,930.41
2017-10-08T05:38:18.523Z,930.39
2017-10-08T05:38:46.610Z,930.37
2017-10-08T05:39:14.612Z,930.36
2017-10-08T05:39:42.601Z,930.39
2017-10-08T05:40:10.641Z,930.42
2017-10-08T05:40:38.531Z,930.32
2017-10-08T05:41:06.544Z,930.34
2017-10-08T05:41:34.666Z,930.33
2017-10-08T05:42:02.632Z,930.32
2017-10-08T05:42:30.625Z,930.27
2017-10-08T05:42:58.544Z,930.26
2017-10-08T05:43:26.694Z,930.3
2017-10-08T05:43:54.707Z,930.29
2017-10-08T05:44:22.827Z,930.21
2017-10-08T05:44:50.954Z,930.2
2017-10-08T05:45:18.948Z,930.2
2017-10-08T05:45:46.950Z,930.19
2017-10-08T05:46:15.094Z,930.2
2017-10-08T05:46:43.008Z,930.18
2017-10-08T05:47:10.998Z,930.14
2017-10-08T05:47:38.884Z,930.22
2017-10-08T05:48:06.986Z,930.2
2017-10-08T05:48:34.993Z,930.2
2017-10-08T05:49:03.103Z,930.24
2017-10-08T05:49:31.232Z,930.21
2017-10-08T05:49:59.324Z,930.25
2017-10-08T05:50:27.416Z,930.22
2017-10-08T05:50:55.235Z,930.24
2017-10-08T05:51:23.313Z,930.24